Time;durP1;ratioP1;P1;durP2;ratioP2;P2;SDS_P1;SDS_P2;PMS_P1;PMS_P2;Temp;Humidity;BMP_temperature;BMP_pressure;BME280_temperature;BME280_humidity;BME280_pressure;Samples;Min_cycle;Max_cycle;Signal;HPM_P1;HPM_P2
2023/10/27 00:00:30;;;;;;;37.22;20.23;;;;;;;10.49;100.00;99205.91;5076790;28;20331;-85
2023/10/27 00:02:55;;;;;;;45.85;22.38;;;;;;;10.44;100.00;99202.75;5060666;28;20375;-86
2023/10/27 00:05:21;;;;;;;41.10;21.77;;;;;;;10.45;100.00;99200.03;5057427;28;20033;-86
2023/10/27 00:07:46;;;;;;;40.42;21.13;;;;;;;10.45;100.00;99207.06;5061646;28;20324;-86
2023/10/27 00:10:13;;;;;;;43.40;22.50;;;;;;;10.42;100.00;99194.19;5068028;28;20063;-86
2023/10/27 00:12:38;;;;;;;39.20;20.83;;;;;;;10.42;100.00;99205.47;5071408;28;20036;-86
2023/10/27 00:15:05;;;;;;;32.25;18.50;;;;;;;10.44;100.00;99203.63;5075729;28;20352;-86
2023/10/27 00:17:30;;;;;;;37.88;20.67;;;;;;;10.43;100.00;99204.53;5066245;28;20387;-85
2023/10/27 00:19:56;;;;;;;44.33;22.23;;;;;;;10.42;100.00;99197.63;5059011;28;20035;-86
2023/10/27 00:22:21;;;;;;;44.92;21.77;;;;;;;10.44;100.00;99194.91;5065302;28;20238;-86
2023/10/27 00:24:47;;;;;;;45.08;22.05;;;;;;;10.44;100.00;99198.38;5056652;28;20028;-86
2023/10/27 00:27:12;;;;;;;37.83;20.38;;;;;;;10.47;100.00;99194.72;5065706;28;20034;-86
2023/10/27 00:29:37;;;;;;;41.67;20.55;;;;;;;10.48;100.00;99189.38;5076459;28;20024;-86
2023/10/27 00:32:04;;;;;;;37.22;19.80;;;;;;;10.47;100.00;99187.69;5077294;28;20260;-86
2023/10/27 00:34:29;;;;;;;41.55;22.15;;;;;;;10.46;100.00;99188.66;5058335;28;20028;-85
2023/10/27 00:36:54;;;;;;;36.83;20.55;;;;;;;10.47;100.00;99184.25;5044653;28;20116;-86
2023/10/27 00:39:20;;;;;;;44.30;21.88;;;;;;;10.46;100.00;99182.56;5056706;28;20033;-86
2023/10/27 00:41:45;;;;;;;41.83;21.38;;;;;;;10.45;100.00;99179.09;5060537;28;20223;-86
2023/10/27 00:44:11;;;;;;;38.38;19.70;;;;;;;10.47;100.00;99177.22;5058963;28;20051;-86
2023/10/27 00:46:37;;;;;;;39.97;21.10;;;;;;;10.49;100.00;99177.13;5075731;28;20082;-86
2023/10/27 00:49:03;;;;;;;33.05;19.00;;;;;;;10.47;100.00;99172.00;5076685;28;20107;-85
2023/10/27 00:51:28;;;;;;;34.83;19.77;;;;;;;10.48;100.00;99172.84;5076070;28;20081;-85
2023/10/27 00:53:54;;;;;;;31.48;18.23;;;;;;;10.48;100.00;99170.22;5076717;28;20397;-86
2023/10/27 00:56:21;;;;;;;29.70;17.77;;;;;;;10.47;100.00;99166.75;5076441;28;20278;-86
2023/10/27 00:58:47;;;;;;;31.48;17.25;;;;;;;10.48;100.00;99168.44;5076529;28;20131;-86
2023/10/27 01:01:17;;;;;;;34.63;17.92;;;;;;;10.50;100.00;99169.19;5058456;28;20036;-86
2023/10/27 01:03:42;;;;;;;36.22;17.70;;;;;;;10.49;100.00;99164.88;5076429;28;20044;-85
2023/10/27 01:06:08;;;;;;;35.17;16.75;;;;;;;10.49;100.00;99161.44;5076135;28;20130;-86
2023/10/27 01:08:33;;;;;;;35.30;18.20;;;;;;;10.48;100.00;99163.22;5057241;28;20243;-86
2023/10/27 01:10:59;;;;;;;36.28;18.63;;;;;;;10.47;100.00;99156.28;5056700;28;20032;-86
2023/10/27 01:13:25;;;;;;;33.78;16.88;;;;;;;10.46;100.00;99154.63;5040826;28;20032;-86
2023/10/27 01:15:50;;;;;;;29.55;14.95;;;;;;;10.49;100.00;99153.56;5055842;28;20043;-86
2023/10/27 01:18:16;;;;;;;34.58;16.92;;;;;;;10.46;100.00;99149.41;5056005;28;20047;-85
2023/10/27 01:20:41;;;;;;;32.22;15.70;;;;;;;10.50;100.00;99153.47;5059674;28;20044;-86
2023/10/27 01:23:06;;;;;;;29.90;15.63;;;;;;;10.48;100.00;99144.88;5073237;28;20335;-86
2023/10/27 01:25:32;;;;;;;32.17;15.02;;;;;;;10.50;100.00;99150.84;5066303;28;20118;-85
2023/10/27 01:27:57;;;;;;;31.45;15.65;;;;;;;10.52;100.00;99145.53;5063083;28;20032;-86
2023/10/27 01:30:23;;;;;;;29.17;15.80;;;;;;;10.51;100.00;99146.44;5055052;28;20020;-86
2023/10/27 01:32:48;;;;;;;26.42;14.15;;;;;;;10.53;100.00;99141.94;5064143;28;20366;-86
2023/10/27 01:35:14;;;;;;;30.30;15.93;;;;;;;10.53;100.00;99140.19;5055480;28;20033;-86
2023/10/27 01:37:40;;;;;;;31.40;15.88;;;;;;;10.53;100.00;99136.72;5036390;28;20425;-86
2023/10/27 01:40:06;;;;;;;28.52;15.00;;;;;;;10.50;100.00;99139.56;5055125;28;20337;-86
2023/10/27 01:42:34;;;;;;;28.33;13.98;;;;;;;10.50;100.00;99139.56;5055366;28;20125;-86
2023/10/27 01:45:04;;;;;;;28.47;14.87;;;;;;;10.48;100.00;99139.66;5037925;28;20088;-86
2023/10/27 01:47:30;;;;;;;27.38;13.85;;;;;;;10.49;100.00;99137.88;5055326;28;20032;-85
2023/10/27 01:49:55;;;;;;;25.75;14.75;;;;;;;10.50;100.00;99142.19;5055678;28;20040;-86
2023/10/27 01:52:21;;;;;;;26.15;14.15;;;;;;;10.52;100.00;99140.28;5055510;28;20396;-86
2023/10/27 01:54:46;;;;;;;29.58;15.10;;;;;;;10.50;100.00;99136.94;5037752;28;20029;-86
2023/10/27 01:57:12;;;;;;;29.40;14.45;;;;;;;10.49;100.00;99136.06;5055746;28;20059;-86
2023/10/27 01:59:37;;;;;;;27.17;14.63;;;;;;;10.49;100.00;99137.88;5055285;28;20064;-86
2023/10/27 02:02:03;;;;;;;25.35;13.20;;;;;;;10.50;100.00;99134.31;5037600;28;20033;-86
2023/10/27 02:04:28;;;;;;;31.80;15.55;;;;;;;10.50;100.00;99136.94;5055555;28;20048;-86
2023/10/27 02:06:55;;;;;;;34.65;16.38;;;;;;;10.47;100.00;99137.97;5055078;28;20375;-86
2023/10/27 02:09:21;;;;;;;34.80;16.05;;;;;;;10.52;100.00;99132.44;5055327;28;20375;-86
2023/10/27 02:11:46;;;;;;;31.50;15.77;;;;;;;10.51;100.00;99123.75;5055319;28;20024;-86
2023/10/27 02:14:12;;;;;;;35.58;15.82;;;;;;;10.52;100.00;99130.66;5055441;28;20055;-86
2023/10/27 02:16:37;;;;;;;36.08;16.67;;;;;;;10.51;100.00;99131.59;5054816;28;20035;-85
2023/10/27 02:19:03;;;;;;;29.77;15.77;;;;;;;10.49;100.00;99115.16;5055566;28;20032;-86
2023/10/27 02:21:28;;;;;;;27.25;14.80;;;;;;;10.50;100.00;99121.25;5054311;28;20243;-85
2023/10/27 02:23:54;;;;;;;28.58;14.25;;;;;;;10.54;100.00;99127.94;5061514;28;20032;-86
2023/10/27 02:26:19;;;;;;;27.38;14.60;;;;;;;10.51;100.00;99118.53;5072352;28;20105;-86
2023/10/27 02:28:45;;;;;;;33.65;15.23;;;;;;;10.50;100.00;99121.25;5065486;28;20096;-86
2023/10/27 02:31:10;;;;;;;24.33;13.73;;;;;;;10.50;100.00;99123.84;5064997;28;20037;-86
2023/10/27 02:33:36;;;;;;;28.75;15.00;;;;;;;10.52;100.00;99122.78;5073863;28;20028;-86
2023/10/27 02:36:02;;;;;;;25.83;14.65;;;;;;;10.50;100.00;99127.31;5070711;28;20258;-86
2023/10/27 02:38:27;;;;;;;24.45;14.25;;;;;;;10.51;100.00;99123.75;5061498;28;20110;-86
2023/10/27 02:40:53;;;;;;;25.65;14.07;;;;;;;10.51;100.00;99123.75;5037612;28;20025;-86
2023/10/27 02:43:18;;;;;;;24.58;14.32;;;;;;;10.50;100.00;99122.06;5055012;28;20324;-86
2023/10/27 02:45:44;;;;;;;24.92;13.98;;;;;;;10.53;100.00;99119.25;5037292;28;20025;-86
2023/10/27 02:48:09;;;;;;;19.65;12.70;;;;;;;10.52;100.00;99116.72;5037435;28;20054;-85
2023/10/27 02:50:34;;;;;;;22.15;13.05;;;;;;;10.54;100.00;99112.22;5054716;28;20041;-85
2023/10/27 02:53:00;;;;;;;18.40;12.68;;;;;;;10.53;100.00;99114.00;5059063;28;20123;-86
2023/10/27 02:55:25;;;;;;;23.42;12.98;;;;;;;10.53;100.00;99114.00;5058182;28;20041;-85
2023/10/27 02:57:51;;;;;;;17.48;11.35;;;;;;;10.53;100.00;99119.25;5057951;28;20340;-85
2023/10/27 03:00:16;;;;;;;19.05;12.18;;;;;;;10.53;100.00;99116.63;5057990;28;20037;-85
2023/10/27 03:02:42;;;;;;;17.08;10.50;;;;;;;10.52;100.00;99109.72;5062718;28;20047;-86
2023/10/27 03:05:08;;;;;;;15.05;10.63;;;;;;;10.53;100.00;99111.41;5078670;28;20028;-85
2023/10/27 03:07:34;;;;;;;18.60;11.35;;;;;;;10.51;100.00;99115.91;5077322;28;20292;-85
2023/10/27 03:09:59;;;;;;;16.55;10.93;;;;;;;10.52;100.00;99109.72;5060503;28;20138;-86
2023/10/27 03:12:24;;;;;;;16.20;10.43;;;;;;;10.52;100.00;99107.09;5060003;28;20032;-85
2023/10/27 03:14:50;;;;;;;17.85;11.35;;;;;;;10.53;100.00;99116.63;5078032;28;20028;-86
2023/10/27 03:17:15;;;;;;;17.70;10.40;;;;;;;10.53;100.00;99111.41;5077985;28;20362;-86
2023/10/27 03:19:41;;;;;;;17.17;10.27;;;;;;;10.52;100.00;99111.50;5078098;28;20032;-86
2023/10/27 03:22:06;;;;;;;12.85;8.85;;;;;;;10.54;100.00;99120.06;5059804;28;20092;-85
2023/10/27 03:24:32;;;;;;;11.98;8.75;;;;;;;10.54;100.00;99120.91;5077657;28;20047;-86
2023/10/27 03:26:57;;;;;;;14.55;9.80;;;;;;;10.54;100.00;99107.81;5078437;28;20084;-85
2023/10/27 03:29:22;;;;;;;14.50;9.25;;;;;;;10.53;100.00;99108.78;5078089;28;20051;-85
2023/10/27 03:31:50;;;;;;;18.58;10.43;;;;;;;10.52;100.00;99114.94;5041297;28;20248;-86
2023/10/27 03:34:15;;;;;;;14.80;9.73;;;;;;;10.54;100.00;99117.47;5058366;28;20037;-86
2023/10/27 03:36:40;;;;;;;13.45;8.18;;;;;;;10.54;100.00;99109.59;5057809;28;20037;-85
2023/10/27 03:39:07;;;;;;;12.25;8.27;;;;;;;10.55;100.00;99108.66;5066420;28;20247;-85
2023/10/27 03:41:32;;;;;;;13.93;8.60;;;;;;;10.56;100.00;99107.72;5075759;28;20377;-85
2023/10/27 03:43:58;;;;;;;11.85;8.32;;;;;;;10.55;100.00;99099.03;5076678;28;20103;-85
2023/10/27 03:46:23;;;;;;;11.27;8.32;;;;;;;10.55;100.00;99103.41;5063612;28;20332;-86
2023/10/27 03:48:48;;;;;;;11.13;8.05;;;;;;;10.55;100.00;99104.28;5076325;28;20041;-85
2023/10/27 03:51:15;;;;;;;10.73;7.80;;;;;;;10.55;100.00;99104.28;5077399;28;20247;-85
2023/10/27 03:53:41;;;;;;;10.75;7.63;;;;;;;10.55;100.00;99104.28;5073889;28;20262;-86
2023/10/27 03:56:07;;;;;;;12.95;8.50;;;;;;;10.55;100.00;99096.41;5064742;28;20100;-85
2023/10/27 03:58:32;;;;;;;11.07;8.38;;;;;;;10.55;100.00;99103.41;5061124;28;20037;-85
2023/10/27 04:00:58;;;;;;;13.48;8.68;;;;;;;10.54;100.00;99099.97;5041976;28;20024;-85
2023/10/27 04:03:23;;;;;;;9.95;7.70;;;;;;;10.54;100.00;99101.75;5066504;28;20064;-85
2023/10/27 04:05:49;;;;;;;11.50;7.90;;;;;;;10.55;100.00;99100.78;5077317;28;20108;-85
2023/10/27 04:08:14;;;;;;;12.80;8.90;;;;;;;10.55;100.00;99103.41;5077174;28;20126;-85
2023/10/27 04:10:39;;;;;;;11.05;8.18;;;;;;;10.55;100.00;99111.25;5077242;28;20032;-85
2023/10/27 04:13:07;;;;;;;11.05;8.23;;;;;;;10.53;100.00;99100.94;5077868;28;20075;-85
2023/10/27 04:15:32;;;;;;;9.77;7.75;;;;;;;10.54;100.00;99107.00;5077159;28;20041;-86
2023/10/27 04:17:58;;;;;;;12.23;8.52;;;;;;;10.53;100.00;99095.69;5077333;28;20036;-85
2023/10/27 04:20:24;;;;;;;13.50;8.85;;;;;;;10.53;100.00;99102.69;5063807;28;20306;-85
2023/10/27 04:22:49;;;;;;;11.50;8.48;;;;;;;10.54;100.00;99099.13;5056705;28;20036;-86
2023/10/27 04:25:15;;;;;;;13.57;9.30;;;;;;;10.53;100.00;99098.31;5052073;28;20091;-85
2023/10/27 04:27:40;;;;;;;10.88;8.55;;;;;;;10.54;100.00;99096.53;5056527;28;20045;-85
2023/10/27 04:30:07;;;;;;;13.90;9.65;;;;;;;10.54;100.00;99099.97;5056824;28;20037;-86
2023/10/27 04:32:38;;;;;;;13.75;9.35;;;;;;;10.53;100.00;99100.94;5056237;28;20067;-85
2023/10/27 04:35:04;;;;;;;13.60;9.48;;;;;;;10.53;100.00;99103.53;5056892;28;20283;-85
2023/10/27 04:37:32;;;;;;;13.13;8.82;;;;;;;10.54;100.00;99099.13;5056108;28;20075;-85
2023/10/27 04:39:58;;;;;;;14.90;8.95;;;;;;;10.53;100.00;99100.94;5056715;28;20059;-85
2023/10/27 04:42:25;;;;;;;11.85;8.15;;;;;;;10.54;100.00;99110.44;5056690;28;20029;-86
2023/10/27 04:44:50;;;;;;;12.70;8.05;;;;;;;10.54;100.00;99107.00;5056321;28;20324;-85
2023/10/27 04:47:15;;;;;;;13.18;9.30;;;;;;;10.54;100.00;99112.22;5057368;28;20037;-85
2023/10/27 04:49:41;;;;;;;11.68;8.10;;;;;;;10.55;100.00;99111.25;5056812;28;20040;-85
2023/10/27 04:52:06;;;;;;;9.95;7.68;;;;;;;10.54;100.00;99107.81;5056633;28;20059;-85
2023/10/27 04:54:34;;;;;;;14.95;9.15;;;;;;;10.59;100.00;99110.13;5055919;28;20592;-86
2023/10/27 04:57:00;;;;;;;11.77;8.93;;;;;;;10.62;100.00;99103.84;5058801;28;20020;-85
2023/10/27 04:59:25;;;;;;;13.55;9.38;;;;;;;10.62;100.00;99107.28;5076340;28;20027;-85
2023/10/27 05:01:50;;;;;;;12.15;9.05;;;;;;;10.66;100.00;99110.53;5075625;28;20043;-85
2023/10/27 05:04:16;;;;;;;13.38;9.52;;;;;;;10.67;100.00;99097.34;5070065;28;20112;-86
2023/10/27 05:06:44;;;;;;;12.60;9.68;;;;;;;10.70;100.00;99104.16;5039845;28;20167;-85
2023/10/27 05:09:10;;;;;;;13.38;9.32;;;;;;;10.71;100.00;99103.22;5076057;28;20240;-85
2023/10/27 05:11:36;;;;;;;12.27;9.10;;;;;;;10.70;100.00;99102.38;5069830;28;20331;-85
2023/10/27 05:14:01;;;;;;;11.18;8.68;;;;;;;10.67;100.00;99099.13;5054791;28;20064;-85
2023/10/27 05:16:27;;;;;;;11.10;8.55;;;;;;;10.64;100.00;99094.97;5055671;28;20032;-86
2023/10/27 05:18:53;;;;;;;12.13;9.05;;;;;;;10.62;100.00;99099.44;5056118;28;20443;-85
2023/10/27 05:21:19;;;;;;;11.70;8.88;;;;;;;10.60;100.00;99103.94;5076255;28;20028;-86
2023/10/27 05:23:45;;;;;;;11.85;8.93;;;;;;;10.59;100.00;99104.91;5075251;28;20241;-85
2023/10/27 05:26:10;;;;;;;14.60;9.45;;;;;;;10.57;100.00;99106.78;5070193;28;20479;-85
2023/10/27 05:28:36;;;;;;;13.35;9.50;;;;;;;10.57;100.00;99109.41;5065425;28;20063;-85
2023/10/27 05:31:01;;;;;;;15.07;9.98;;;;;;;10.57;100.00;99106.78;5065469;28;20032;-85
2023/10/27 05:33:26;;;;;;;12.00;9.85;;;;;;;10.55;100.00;99104.28;5081863;28;20035;-85
2023/10/27 05:35:52;;;;;;;14.52;9.25;;;;;;;10.55;100.00;99104.28;5090932;28;20036;-85
2023/10/27 05:38:18;;;;;;;11.93;8.95;;;;;;;10.54;100.00;99102.59;5062320;28;20032;-85
2023/10/27 05:40:43;;;;;;;12.38;9.20;;;;;;;10.55;100.00;99103.41;5079709;28;20059;-85
2023/10/27 05:43:08;;;;;;;13.88;10.27;;;;;;;10.53;100.00;99106.16;5065743;28;20067;-85
2023/10/27 05:45:34;;;;;;;14.30;10.05;;;;;;;10.53;100.00;99100.06;5088606;28;20094;-85
2023/10/27 05:47:59;;;;;;;13.15;9.65;;;;;;;10.53;100.00;99102.69;5072858;28;20028;-85
2023/10/27 05:50:24;;;;;;;13.55;9.85;;;;;;;10.53;100.00;99100.94;5077054;28;20061;-85
2023/10/27 05:52:50;;;;;;;12.85;10.23;;;;;;;10.52;100.00;99109.72;5075012;28;20031;-85
2023/10/27 05:55:15;;;;;;;13.70;9.73;;;;;;;10.52;100.00;99103.66;5090893;28;20039;-85
2023/10/27 05:57:41;;;;;;;14.38;10.13;;;;;;;10.51;100.00;99102.81;5092164;28;20035;-85
2023/10/27 06:00:07;;;;;;;13.23;9.30;;;;;;;10.51;100.00;99105.44;5076825;28;20335;-85
2023/10/27 06:02:33;;;;;;;14.32;10.18;;;;;;;10.51;100.00;99102.81;5073947;28;20028;-85
2023/10/27 06:04:58;;;;;;;13.32;10.32;;;;;;;10.49;100.00;99103.84;5080547;28;20350;-85
2023/10/27 06:07:23;;;;;;;15.85;10.57;;;;;;;10.47;100.00;99101.31;5051182;28;20044;-85
2023/10/27 06:09:49;;;;;;;14.30;9.70;;;;;;;10.48;100.00;99103.00;5075044;28;20295;-85
2023/10/27 06:12:15;;;;;;;14.30;8.98;;;;;;;10.50;100.00;99105.53;5063439;28;20040;-86
2023/10/27 06:14:44;;;;;;;12.80;9.77;;;;;;;10.51;100.00;99110.66;5054954;28;20076;-85
2023/10/27 06:17:11;;;;;;;14.98;10.27;;;;;;;10.50;100.00;99116.84;5055294;28;20108;-85
2023/10/27 06:19:37;;;;;;;12.32;9.07;;;;;;;10.51;100.00;99108.06;5054501;28;20037;-85
2023/10/27 06:22:03;;;;;;;13.80;9.35;;;;;;;10.50;100.00;99111.59;5054984;28;20398;-85
2023/10/27 06:24:29;;;;;;;12.80;8.63;;;;;;;10.49;100.00;99115.16;5054233;28;20044;-85
2023/10/27 06:26:54;;;;;;;12.98;9.05;;;;;;;10.49;100.00;99109.91;5036253;28;20371;-85
2023/10/27 06:29:19;;;;;;;12.77;9.15;;;;;;;10.47;100.00;99109.19;5054876;28;20064;-85
2023/10/27 06:31:45;;;;;;;13.30;9.75;;;;;;;10.47;100.00;99113.59;5060732;28;20037;-85
2023/10/27 06:34:10;;;;;;;12.55;9.25;;;;;;;10.47;100.00;99109.19;5053554;28;20048;-85
2023/10/27 06:36:35;;;;;;;13.00;9.75;;;;;;;10.49;100.00;99114.31;5057976;28;20328;-85
2023/10/27 06:39:01;;;;;;;12.65;9.02;;;;;;;10.47;100.00;99117.03;5073801;28;20343;-85
2023/10/27 06:41:27;;;;;;;15.07;10.02;;;;;;;10.46;100.00;99110.13;5072624;28;20339;-86
2023/10/27 06:43:52;;;;;;;15.30;9.80;;;;;;;10.46;100.00;99109.28;5073506;28;20040;-85
2023/10/27 06:46:18;;;;;;;13.40;9.95;;;;;;;10.49;100.00;99114.31;5073402;28;20035;-85
2023/10/27 06:48:43;;;;;;;16.85;10.27;;;;;;;10.49;100.00;99114.31;5073589;28;20361;-85
2023/10/27 06:51:09;;;;;;;15.93;10.80;;;;;;;10.55;100.00;99117.38;5073822;28;20036;-85
2023/10/27 06:53:34;;;;;;;15.35;10.75;;;;;;;10.54;100.00;99115.66;5068711;28;20043;-85
2023/10/27 06:55:59;;;;;;;14.60;9.98;;;;;;;10.52;100.00;99122.78;5062331;28;20033;-86
2023/10/27 06:58:25;;;;;;;14.57;9.77;;;;;;;10.50;100.00;99124.69;5059520;28;20029;-85
2023/10/27 07:00:50;;;;;;;14.93;9.95;;;;;;;10.51;100.00;99131.59;5063108;28;20025;-85
2023/10/27 07:03:15;;;;;;;14.27;9.90;;;;;;;10.50;100.00;99134.31;5061554;28;20032;-85
2023/10/27 07:05:42;;;;;;;13.88;9.77;;;;;;;10.49;100.00;99133.47;5064348;28;20131;-85
2023/10/27 07:08:09;;;;;;;12.20;9.25;;;;;;;10.48;100.00;99131.81;5044733;28;20332;-85
2023/10/27 07:10:35;;;;;;;12.60;8.90;;;;;;;10.49;100.00;99135.25;5063294;28;20331;-85
2023/10/27 07:13:00;;;;;;;12.20;9.88;;;;;;;10.47;100.00;99145.00;5064602;28;20332;-85
2023/10/27 07:15:25;;;;;;;13.63;10.18;;;;;;;10.51;100.00;99131.59;5063793;28;20059;-85
2023/10/27 07:17:51;;;;;;;13.25;10.18;;;;;;;10.49;100.00;99140.47;5072917;28;20102;-85
2023/10/27 07:20:17;;;;;;;13.32;10.80;;;;;;;10.47;100.00;99132.72;5044339;28;20041;-85
2023/10/27 07:22:42;;;;;;;14.45;10.63;;;;;;;10.48;100.00;99131.81;5043144;28;20375;-85
2023/10/27 07:25:08;;;;;;;11.52;9.68;;;;;;;10.49;100.00;99136.06;5056057;28;20029;-86
2023/10/27 07:27:34;;;;;;;12.68;10.10;;;;;;;10.50;100.00;99140.38;5067196;28;20032;-85
2023/10/27 07:29:59;;;;;;;13.00;9.70;;;;;;;10.52;100.00;99137.66;5050424;28;20601;-85
2023/10/27 07:32:25;;;;;;;11.75;8.70;;;;;;;10.53;100.00;99142.81;5065726;28;20363;-85
2023/10/27 07:34:50;;;;;;;13.80;10.05;;;;;;;10.55;100.00;99140.91;5070011;28;20037;-86
2023/10/27 07:37:17;;;;;;;15.57;10.98;;;;;;;10.59;100.00;99148.53;5073607;28;20075;-85
2023/10/27 07:39:42;;;;;;;13.75;10.45;;;;;;;10.56;100.00;99147.81;5066263;28;20052;-85
2023/10/27 07:42:09;;;;;;;14.70;10.75;;;;;;;10.55;100.00;99148.78;5077305;28;20036;-85
2023/10/27 07:44:34;;;;;;;15.00;10.02;;;;;;;10.55;100.00;99150.53;5091690;28;20057;-85
2023/10/27 07:47:00;;;;;;;13.35;10.02;;;;;;;10.52;100.00;99154.19;5065949;28;20036;-85
2023/10/27 07:49:25;;;;;;;15.13;10.18;;;;;;;10.52;100.00;99159.44;5092243;28;20039;-85
2023/10/27 07:51:50;;;;;;;14.00;10.52;;;;;;;10.52;100.00;99148.97;5070845;28;20035;-85
2023/10/27 07:54:16;;;;;;;11.88;9.18;;;;;;;10.52;100.00;99161.22;5089273;28;20373;-85
2023/10/27 07:56:42;;;;;;;15.93;10.25;;;;;;;10.53;100.00;99161.13;5088241;28;20043;-85
2023/10/27 07:59:07;;;;;;;13.43;10.40;;;;;;;10.52;100.00;99164.69;5078763;28;20028;-85
2023/10/27 08:01:32;;;;;;;15.23;10.50;;;;;;;10.52;100.00;99167.28;5078520;28;20029;-86
2023/10/27 08:03:59;;;;;;;16.90;10.98;;;;;;;10.50;100.00;99163.94;5055262;28;20076;-85
2023/10/27 08:06:24;;;;;;;13.63;10.20;;;;;;;10.50;100.00;99161.31;5052562;28;20044;-85
2023/10/27 08:08:49;;;;;;;14.23;10.38;;;;;;;10.53;100.00;99162.88;5049809;28;20052;-85
2023/10/27 08:11:18;;;;;;;13.15;10.32;;;;;;;10.54;100.00;99165.41;5062066;28;20036;-85
2023/10/27 08:13:44;;;;;;;13.27;9.57;;;;;;;10.55;100.00;99164.47;5057694;28;20064;-86
2023/10/27 08:16:10;;;;;;;17.08;11.00;;;;;;;10.54;100.00;99167.19;5059810;28;20028;-85
2023/10/27 08:18:36;;;;;;;14.68;9.93;;;;;;;10.56;100.00;99174.00;5048117;28;20286;-86
2023/10/27 08:21:02;;;;;;;12.55;9.20;;;;;;;10.58;100.00;99171.28;5060378;28;20036;-86
2023/10/27 08:23:28;;;;;;;12.73;9.95;;;;;;;10.60;100.00;99177.25;5049613;28;20335;-86
2023/10/27 08:25:53;;;;;;;11.15;9.02;;;;;;;10.61;100.00;99168.47;5059798;28;20032;-86
2023/10/27 08:28:20;;;;;;;14.88;9.70;;;;;;;10.61;100.00;99176.31;5064425;28;20035;-86
2023/10/27 08:30:46;;;;;;;11.35;9.20;;;;;;;10.60;100.00;99177.25;5069995;28;20028;-86
2023/10/27 08:33:16;;;;;;;11.23;9.43;;;;;;;10.62;100.00;99174.53;5063771;28;20236;-86
2023/10/27 08:35:41;;;;;;;11.55;8.50;;;;;;;10.62;100.00;99170.13;5059297;28;20063;-86
2023/10/27 08:38:07;;;;;;;8.73;7.82;;;;;;;10.65;100.00;99183.00;5052906;28;21159;-85
2023/10/27 08:40:33;;;;;;;11.00;8.85;;;;;;;10.65;100.00;99179.56;5057896;28;20043;-85
2023/10/27 08:42:59;;;;;;;15.13;10.13;;;;;;;10.63;100.00;99174.44;5054100;28;20339;-86
2023/10/27 08:45:25;;;;;;;12.45;9.23;;;;;;;10.64;100.00;99180.50;5055258;28;20078;-86
2023/10/27 08:47:50;;;;;;;15.00;9.70;;;;;;;10.65;100.00;99179.56;5073978;28;20029;-86
2023/10/27 08:50:16;;;;;;;10.80;9.48;;;;;;;10.66;100.00;99179.47;5071090;28;20242;-85
2023/10/27 08:52:42;;;;;;;11.93;9.55;;;;;;;10.65;100.00;99163.84;5071104;28;20036;-86
2023/10/27 08:55:09;;;;;;;10.48;8.00;;;;;;;10.66;100.00;99166.38;5065101;28;20335;-85
2023/10/27 08:57:35;;;;;;;9.27;7.80;;;;;;;10.67;100.00;99168.03;5070936;28;20291;-86
2023/10/27 09:00:00;;;;;;;10.65;9.02;;;;;;;10.67;100.00;99160.19;5058134;28;20104;-85
2023/10/27 09:02:33;;;;;;;9.30;8.18;;;;;;;10.68;100.00;99164.47;5062637;28;20092;-86
2023/10/27 09:05:05;;;;;;;10.35;8.50;;;;;;;10.71;100.00;99166.91;5065466;28;20031;-85
2023/10/27 09:07:34;;;;;;;12.27;9.40;;;;;;;10.74;100.00;99164.06;5062181;28;20405;-85
2023/10/27 09:09:59;;;;;;;;;;;;;;;10.70;100.00;99165.22;5076320;28;20043;-85
2023/10/27 09:12:30;;;;;;;9.00;8.07;;;;;;;10.72;100.00;99172.97;5050623;28;19952;-85
2023/10/27 09:15:01;;;;;;;8.52;7.70;;;;;;;10.71;100.00;99173.91;5058572;28;20063;-85
2023/10/27 09:17:29;;;;;;;11.40;7.93;;;;;;;10.72;100.00;99172.97;5070064;28;20036;-86
2023/10/27 09:20:07;;;;;;;9.45;7.22;;;;;;;10.72;100.00;99179.03;5064993;28;20031;-85
2023/10/27 09:22:33;;;;;;;9.90;7.70;;;;;;;10.74;100.00;99173.69;5074985;28;20411;-85
2023/10/27 09:25:19;;;;;;;8.18;7.38;;;;;;;10.75;100.00;99178.84;5080106;28;20032;-85
2023/10/27 09:27:45;;;;;;;15.57;8.70;;;;;;;10.76;100.00;99184.91;5083674;28;20340;-85
2023/10/27 09:30:12;;;;;;;8.70;7.72;;;;;;;10.78;100.00;99187.44;5063796;28;20108;-85
2023/10/27 09:32:40;;;;;;;10.07;8.10;;;;;;;10.77;100.00;99178.75;5060558;28;20064;-85
2023/10/27 09:35:17;;;;;;;12.88;8.35;;;;;;;10.76;100.00;99183.13;5051526;28;20040;-85
2023/10/27 09:37:46;;;;;;;8.82;7.57;;;;;;;10.75;100.00;99180.59;5085513;28;20313;-85
2023/10/27 09:40:13;;;;;;;;;;;;;;;10.75;100.00;99184.06;5057108;28;20036;-85
2023/10/27 09:42:39;;;;;;;9.07;6.68;;;;;;;10.76;100.00;99187.53;5054623;28;20271;-85
2023/10/27 09:45:17;;;;;;;8.20;7.00;;;;;;;10.75;100.00;99186.69;5068774;28;20021;-85
2023/10/27 09:47:47;;;;;;;7.97;7.10;;;;;;;10.77;100.00;99178.75;5081164;28;20040;-85
2023/10/27 09:50:26;;;;;;;6.65;6.05;;;;;;;10.78;100.00;99185.63;5074263;28;20245;-85
2023/10/27 09:52:57;;;;;;;9.32;7.10;;;;;;;10.78;100.00;99182.19;5067103;28;20032;-85
2023/10/27 09:55:24;;;;;;;8.73;7.38;;;;;;;10.82;100.00;99187.09;5071941;28;20377;-84
2023/10/27 09:57:49;;;;;;;8.10;7.28;;;;;;;10.78;100.00;99183.03;5077076;28;20044;-85
2023/10/27 10:00:25;;;;;;;9.35;7.30;;;;;;;10.82;100.00;99184.47;5065467;28;20073;-84
2023/10/27 10:02:51;;;;;;;9.38;7.72;;;;;;;10.80;100.00;99186.38;5075897;28;20390;-84
2023/10/27 10:05:17;;;;;;;8.77;7.03;;;;;;;10.80;100.00;99178.50;5056149;28;20385;-85
2023/10/27 10:07:53;;;;;;;12.05;7.70;;;;;;;10.82;100.00;99178.41;5053986;28;20044;-84
2023/10/27 10:10:33;;;;;;;9.68;7.78;;;;;;;10.80;100.00;99186.38;5049244;28;20363;-85
2023/10/27 10:13:03;;;;;;;8.90;7.20;;;;;;;10.81;100.00;99187.22;5052485;28;20033;-85
2023/10/27 10:15:31;;;;;;;8.18;7.30;;;;;;;10.81;100.00;99184.59;5034577;28;20240;-84
2023/10/27 10:17:57;;;;;;;8.45;7.65;;;;;;;10.82;100.00;99192.34;5060890;28;20202;-85
2023/10/27 10:20:44;;;;;;;8.93;7.55;;;;;;;10.86;100.00;99187.72;5044581;28;20051;-85
2023/10/27 10:23:10;;;;;;;8.45;7.15;;;;;;;10.87;100.00;99192.03;5050275;28;20049;-85
2023/10/27 10:25:36;;;;;;;9.63;7.55;;;;;;;10.88;100.00;99194.56;5044888;28;20360;-85
2023/10/27 10:28:07;;;;;;;9.35;7.65;;;;;;;10.89;100.00;99198.84;5050851;28;20029;-85
2023/10/27 10:31:11;;;;;;;8.88;6.97;;;;;;;10.92;100.00;99193.41;5043650;28;20131;-85
2023/10/27 10:33:40;;;;;;;13.23;8.45;;;;;;;10.93;100.00;99192.47;5045048;28;20345;-84
2023/10/27 10:36:18;;;;;;;11.30;7.97;;;;;;;10.96;100.00;99196.66;5049360;28;20033;-85
2023/10/27 10:39:03;;;;;;;11.05;7.45;;;;;;;10.99;100.00;99188.59;5041774;28;20044;-85
2023/10/27 10:41:41;;;;;;;12.85;8.00;;;;;;;11.02;100.00;99187.53;5053650;28;20024;-85
2023/10/27 10:44:11;;;;;;;9.18;7.28;;;;;;;11.05;100.00;99182.91;5033553;28;20036;-84
2023/10/27 10:46:37;;;;;;;9.27;6.72;;;;;;;11.08;100.00;99176.63;5041777;28;20033;-84
2023/10/27 10:49:02;;;;;;;7.50;6.20;;;;;;;11.12;100.00;99185.97;5045527;28;20339;-85
2023/10/27 10:51:36;;;;;;;5.25;4.75;;;;;;;11.14;100.00;99179.66;5045914;28;20044;-84
2023/10/27 10:54:02;;;;;;;4.65;4.25;;;;;;;11.16;100.00;99183.97;5050646;28;20033;-85
2023/10/27 10:56:27;;;;;;;4.60;4.20;;;;;;;11.15;100.00;99180.47;5052458;28;20220;-85
2023/10/27 10:58:53;;;;;;;5.20;4.05;;;;;;;11.18;100.00;99176.84;5057904;28;20063;-85
2023/10/27 11:01:23;;;;;;;4.65;3.42;;;;;;;11.21;100.00;99184.47;5031785;28;20029;-85
2023/10/27 11:03:54;;;;;;;4.32;3.50;;;;;;;11.21;100.00;99180.06;5047565;28;20324;-85
2023/10/27 11:06:24;;;;;;;4.13;3.35;;;;;;;11.21;100.00;99182.69;5054544;28;20055;-85
2023/10/27 11:08:50;;;;;;;3.30;2.97;;;;;;;11.20;100.00;99175.75;5045780;28;20111;-85
2023/10/27 11:11:19;;;;;;;3.20;3.00;;;;;;;11.19;100.00;99187.22;5041575;28;20229;-85